Time;durP1;ratioP1;P1;durP2;ratioP2;P2;SDS_P1;SDS_P2;PMS_P1;PMS_P2;Temp;Humidity;BMP_temperature;BMP_pressure;BME280_temperature;BME280_humidity;BME280_pressure;Samples;Min_cycle;Max_cycle;Signal;HPM_P1;HPM_P2
2021/12/15 00:00:51;;;;;;;;;;;10.40;99.90;;;;;;5079551;28;19920;-79
2021/12/15 00:03:19;;;;;;;;;;;10.40;99.90;;;;;;5095784;28;20093;-79
2021/12/15 00:05:48;;;;;;;;;;;10.40;99.90;;;;;;5106741;28;19923;-80
2021/12/15 00:08:14;;;;;;;;;;;10.40;99.90;;;;;;5090254;28;19924;-79
2021/12/15 00:10:41;;;;;;;;;;;10.40;99.90;;;;;;5090116;28;19927;-80
2021/12/15 00:13:07;;;;;;;;;;;10.40;99.90;;;;;;5080223;28;19920;-79
2021/12/15 00:15:33;;;;;;;;;;;10.40;99.90;;;;;;5115526;28;19931;-79
2021/12/15 00:17:59;;;;;;;;;;;10.40;99.90;;;;;;5084170;28;19920;-80
2021/12/15 00:20:25;;;;;;;;;;;10.40;99.90;;;;;;5087724;28;19979;-80
2021/12/15 00:22:52;;;;;;;;;;;10.40;99.90;;;;;;5100353;28;19946;-79
2021/12/15 00:25:19;;;;;;;;;;;10.40;99.90;;;;;;5095182;28;19995;-81
2021/12/15 00:27:45;;;;;;;;;;;10.40;99.90;;;;;;5091946;28;19966;-79
2021/12/15 00:30:11;;;;;;;;;;;10.40;99.90;;;;;;5100657;28;20304;-78
2021/12/15 00:32:37;;;;;;;;;;;10.40;99.90;;;;;;5110032;28;19920;-79
2021/12/15 00:35:04;;;;;;;;;;;10.40;99.90;;;;;;5080386;28;19969;-81
2021/12/15 00:37:29;;;;;;;;;;;10.40;99.90;;;;;;5095078;28;19977;-80
2021/12/15 00:39:56;;;;;;;;;;;10.40;99.90;;;;;;5092277;28;19920;-81
2021/12/15 00:42:22;;;;;;;;;;;10.40;99.90;;;;;;5111616;28;19954;-80
2021/12/15 00:44:47;;;;;;;;;;;10.40;99.90;;;;;;5071642;28;20019;-80
2021/12/15 00:47:13;;;;;;;;;;;10.40;99.90;;;;;;5085961;28;19924;-80
2021/12/15 00:49:39;;;;;;;;;;;10.40;99.90;;;;;;5107328;28;19920;-79
2021/12/15 00:52:05;;;;;;;;;;;10.50;99.90;;;;;;5061747;28;19927;-79
2021/12/15 00:54:31;;;;;;;;;;;10.40;99.90;;;;;;5088445;28;19977;-80
2021/12/15 00:56:58;;;;;;;;;;;10.40;99.90;;;;;;5105481;28;20417;-80
2021/12/15 00:59:24;;;;;;;;;;;10.40;99.90;;;;;;5085499;28;19924;-80
2021/12/15 01:01:50;;;;;;;;;;;10.40;99.90;;;;;;5081608;28;19926;-80
2021/12/15 01:04:16;;;;;;;;;;;10.40;99.90;;;;;;5089943;28;19920;-79
2021/12/15 01:06:44;;;;;;;;;;;10.50;99.90;;;;;;5064160;28;19920;-79
2021/12/15 01:09:12;;;;;;;;;;;10.40;99.90;;;;;;5078436;28;19928;-80
2021/12/15 01:12:04;;;;;;;;;;;10.40;99.90;;;;;;5060580;28;20420;-80
2021/12/15 01:20:04;;;;;;;;;;;10.50;99.90;;;;;;5060233;28;20341;-79
2021/12/15 01:22:32;;;;;;;;;;;10.50;99.90;;;;;;5045007;28;19920;-80
2021/12/15 01:24:59;;;;;;;;;;;10.50;99.90;;;;;;5080039;28;19926;-80
2021/12/15 01:27:25;;;;;;;;;;;10.50;99.90;;;;;;5061219;28;20411;-80
2021/12/15 01:29:52;;;;;;;;;;;10.50;99.90;;;;;;5070500;28;19960;-79
2021/12/15 01:32:18;;;;;;;;;;;10.50;99.90;;;;;;5062986;28;20137;-79
2021/12/15 01:34:44;;;;;;;;;;;10.50;99.90;;;;;;5061489;28;19920;-80
2021/12/15 01:37:10;;;;;;;;;;;10.50;99.90;;;;;;5036774;28;20416;-80
2021/12/15 01:39:35;;;;;;;;;;;10.50;99.90;;;;;;5031531;28;19932;-80
2021/12/15 01:42:02;;;;;;;;;;;10.50;99.90;;;;;;5045913;28;19947;-81
2021/12/15 01:46:57;;;;;;;;;;;10.50;99.90;;;;;;5061177;28;19924;-79
2021/12/15 01:49:26;;;;;;;;;;;10.50;99.90;;;;;;5062967;28;19924;-80
2021/12/15 01:51:51;;;;;;;;;;;10.50;99.90;;;;;;5059199;28;20007;-80
2021/12/15 01:54:17;;;;;;;;;;;10.50;99.90;;;;;;5072166;28;20372;-80
2021/12/15 01:56:43;;;;;;;;;;;10.50;99.90;;;;;;5073783;28;19966;-79
2021/12/15 01:59:09;;;;;;;;;;;10.50;99.90;;;;;;5056343;28;19924;-80
2021/12/15 02:01:35;;;;;;;;;;;10.50;99.90;;;;;;5045812;28;19920;-80
2021/12/15 02:04:03;;;;;;;;;;;10.50;99.90;;;;;;5061635;28;20325;-80
2021/12/15 02:06:28;;;;;;;;;;;10.50;99.90;;;;;;5079085;28;20002;-81
2021/12/15 02:08:54;;;;;;;;;;;10.50;99.90;;;;;;5049526;28;19970;-80
2021/12/15 02:11:20;;;;;;;;;;;10.50;99.90;;;;;;5083819;28;19987;-80
2021/12/15 02:13:46;;;;;;;;;;;10.50;99.90;;;;;;5087688;28;19998;-80
2021/12/15 02:16:11;;;;;;;;;;;10.50;99.90;;;;;;5048162;28;19920;-80
2021/12/15 02:18:42;;;;;;;;;;;10.50;99.90;;;;;;5092602;28;19931;-79
2021/12/15 02:21:10;;;;;;;;;;;10.50;99.90;;;;;;5079148;28;19920;-79
2021/12/15 02:23:41;;;;;;;;;;;10.50;99.90;;;;;;5090230;28;19958;-79
2021/12/15 02:26:09;;;;;;;;;;;10.50;99.90;;;;;;5081731;28;19926;-80
2021/12/15 02:28:37;;;;;;;;;;;10.50;99.90;;;;;;5091015;28;20419;-80
2021/12/15 02:31:22;;;;;;;;;;;10.50;99.90;;;;;;5091816;28;20003;-79
2021/12/15 02:34:18;;;;;;;;;;;10.60;99.90;;;;;;5069609;28;20019;-80
2021/12/15 02:39:40;;;;;;;;;;;10.60;99.90;;;;;;5042781;28;19931;-80
2021/12/15 02:42:06;;;;;;;;;;;10.60;99.90;;;;;;5082211;28;19938;-79
2021/12/15 02:44:32;;;;;;;;;;;10.50;99.90;;;;;;5079687;28;20396;-79
2021/12/15 02:46:57;;;;;;;;;;;10.60;99.90;;;;;;5086020;28;20011;-82
2021/12/15 02:49:26;;;;;;;;;;;10.60;99.90;;;;;;5076887;28;19920;-79
2021/12/15 02:51:55;;;;;;;;;;;10.50;99.90;;;;;;5086285;28;19923;-79
2021/12/15 02:54:21;;;;;;;;;;;10.50;99.90;;;;;;5088238;28;19954;-79
2021/12/15 02:56:49;;;;;;;;;;;10.50;99.90;;;;;;5052564;28;19931;-80
2021/12/15 02:59:16;;;;;;;;;;;10.50;99.90;;;;;;5078283;28;19946;-79
2021/12/15 03:02:03;;;;;;;;;;;10.60;99.90;;;;;;5051764;28;19962;-80
2021/12/15 03:04:38;;;;;;;;;;;10.50;99.90;;;;;;5082072;28;19920;-80
2021/12/15 03:07:18;;;;;;;;;;;10.50;99.90;;;;;;5059264;28;19924;-80
2021/12/15 03:17:42;;;;;;;;;;;10.50;99.90;;;;;;5064350;28;19964;-80
2021/12/15 03:20:08;;;;;;;;;;;10.50;99.90;;;;;;5061636;28;19920;-80
2021/12/15 03:22:36;;;;;;;;;;;10.50;99.90;;;;;;5094610;28;19923;-79
2021/12/15 03:25:03;;;;;;;;;;;10.50;99.90;;;;;;5078024;28;19928;-81
2021/12/15 03:33:27;;;;;;;;;;;10.50;99.90;;;;;;5071868;28;19924;-80
2021/12/15 03:36:08;;;;;;;;;;;10.50;99.90;;;;;;5049509;28;19934;-79
2021/12/15 03:38:33;;;;;;;;;;;10.50;99.90;;;;;;5062859;28;19919;-80
2021/12/15 03:40:58;;;;;;;;;;;10.50;99.90;;;;;;5068339;28;19924;-79
2021/12/15 03:43:24;;;;;;;;;;;10.50;99.90;;;;;;5071755;28;19970;-79
2021/12/15 03:45:51;;;;;;;;;;;10.50;99.90;;;;;;5056845;28;20343;-80
2021/12/15 03:48:19;;;;;;;;;;;10.50;99.90;;;;;;5072057;28;19921;-81
2021/12/15 03:50:45;;;;;;;;;;;10.50;99.90;;;;;;5044129;28;21666;-80
2021/12/15 03:53:12;;;;;;;;;;;10.50;99.90;;;;;;5072475;28;19920;-80
2021/12/15 03:55:40;;;;;;;;;;;10.50;99.90;;;;;;5043460;28;19924;-79
2021/12/15 03:58:09;;;;;;;;;;;10.50;99.90;;;;;;5066086;28;19995;-80
2021/12/15 04:00:35;;;;;;;;;;;10.50;99.90;;;;;;5056337;28;20389;-80
2021/12/15 04:03:01;;;;;;;;;;;10.50;99.90;;;;;;5075846;28;19920;-79
2021/12/15 04:05:27;;;;;;;;;;;10.50;99.90;;;;;;5061056;28;19920;-78
2021/12/15 04:07:53;;;;;;;;;;;10.50;99.90;;;;;;5055633;28;19949;-80
2021/12/15 04:10:19;;;;;;;;;;;10.40;99.90;;;;;;5078628;28;19927;-79
2021/12/15 04:12:46;;;;;;;;;;;10.50;99.90;;;;;;5055928;28;19974;-80
2021/12/15 04:17:52;;;;;;;;;;;10.40;99.90;;;;;;5063466;28;19920;-79
2021/12/15 04:20:18;;;;;;;;;;;10.50;99.90;;;;;;5046965;28;19920;-80
2021/12/15 04:22:44;;;;;;;;;;;10.40;99.90;;;;;;5079843;28;20361;-80
2021/12/15 04:25:11;;;;;;;;;;;10.40;99.90;;;;;;5080473;28;19943;-80
2021/12/15 04:27:37;;;;;;;;;;;10.40;99.90;;;;;;5063486;28;20003;-78
2021/12/15 04:30:06;;;;;;;;;;;10.40;99.90;;;;;;5059907;28;19956;-80
2021/12/15 04:32:33;;;;;;;;;;;10.40;99.90;;;;;;5080901;28;19931;-80
2021/12/15 04:34:59;;;;;;;;;;;10.40;99.90;;;;;;5046066;28;19971;-80
2021/12/15 04:37:24;;;;;;;;;;;10.40;99.90;;;;;;5064323;28;19930;-80
2021/12/15 04:39:50;;;;;;;;;;;10.40;99.90;;;;;;5059851;28;19923;-80
2021/12/15 04:42:18;;;;;;;;;;;10.40;99.90;;;;;;5061660;28;19928;-80
2021/12/15 04:44:44;;;;;;;;;;;10.40;99.90;;;;;;5060891;28;19920;-80
2021/12/15 04:47:11;;;;;;;;;;;10.40;99.90;;;;;;5077950;28;19950;-80
2021/12/15 04:49:39;;;;;;;;;;;10.40;99.90;;;;;;5063588;28;19924;-79
2021/12/15 04:52:05;;;;;;;;;;;10.40;99.90;;;;;;5077417;28;19974;-79
2021/12/15 04:54:30;;;;;;;;;;;10.40;99.90;;;;;;5074368;28;19928;-80
2021/12/15 04:56:56;;;;;;;;;;;10.40;99.90;;;;;;5059802;28;19931;-80
2021/12/15 04:59:22;;;;;;;;;;;10.40;99.90;;;;;;5063946;28;20340;-79
2021/12/15 05:01:48;;;;;;;;;;;10.40;99.90;;;;;;5063109;28;19929;-79
2021/12/15 05:04:15;;;;;;;;;;;10.40;99.90;;;;;;5059478;28;19925;-79
2021/12/15 05:06:41;;;;;;;;;;;10.40;99.90;;;;;;5095626;28;20395;-79
2021/12/15 05:09:07;;;;;;;;;;;10.40;99.90;;;;;;5058062;28;19959;-79
2021/12/15 05:11:33;;;;;;;;;;;10.40;99.90;;;;;;5082707;28;19923;-80
2021/12/15 05:13:58;;;;;;;;;;;10.40;99.90;;;;;;5096252;28;20352;-81
2021/12/15 05:16:24;;;;;;;;;;;10.40;99.90;;;;;;5058302;28;19970;-80
2021/12/15 05:18:50;;;;;;;;;;;10.40;99.90;;;;;;5088278;28;19978;-81
2021/12/15 05:21:17;;;;;;;;;;;10.40;99.90;;;;;;5075861;28;19919;-80
2021/12/15 05:23:45;;;;;;;;;;;10.40;99.90;;;;;;5081248;28;19973;-80
2021/12/15 05:26:11;;;;;;;;;;;10.40;99.90;;;;;;5090471;28;19920;-79
2021/12/15 05:28:37;;;;;;;;;;;10.40;99.90;;;;;;5075380;28;19920;-79
2021/12/15 05:31:03;;;;;;;;;;;10.40;99.90;;;;;;5081892;28;19999;-79
2021/12/15 05:33:29;;;;;;;;;;;10.40;99.90;;;;;;5076242;28;19955;-79
2021/12/15 05:35:56;;;;;;;;;;;10.40;99.90;;;;;;5080083;28;19931;-79
2021/12/15 05:38:23;;;;;;;;;;;10.40;99.90;;;;;;5093430;28;20011;-80
2021/12/15 05:40:50;;;;;;;;;;;10.40;99.90;;;;;;5052475;28;20294;-80
2021/12/15 05:43:16;;;;;;;;;;;10.40;99.90;;;;;;5090714;28;19930;-79
2021/12/15 05:45:41;;;;;;;;;;;10.40;99.90;;;;;;5082122;28;19967;-79
2021/12/15 05:48:08;;;;;;;;;;;10.40;99.90;;;;;;5073292;28;19920;-80
2021/12/15 05:50:34;;;;;;;;;;;10.40;99.90;;;;;;5099026;28;19933;-78
2021/12/15 05:53:00;;;;;;;;;;;10.40;99.90;;;;;;5082155;28;19920;-80
2021/12/15 05:55:27;;;;;;;;;;;10.40;99.90;;;;;;5080346;28;19974;-79
2021/12/15 05:57:53;;;;;;;;;;;10.40;99.90;;;;;;5073039;28;20397;-80
2021/12/15 06:00:19;;;;;;;;;;;10.40;99.90;;;;;;5063141;28;19927;-78
2021/12/15 06:02:45;;;;;;;;;;;10.40;99.90;;;;;;5107325;28;19924;-79
2021/12/15 06:05:14;;;;;;;;;;;10.40;99.90;;;;;;5095509;28;19978;-80
2021/12/15 06:07:40;;;;;;;;;;;10.40;99.90;;;;;;5058196;28;20266;-79
2021/12/15 06:10:07;;;;;;;;;;;10.40;99.90;;;;;;5077823;28;19920;-80
2021/12/15 06:12:34;;;;;;;;;;;10.40;99.90;;;;;;5066548;28;19927;-79
2021/12/15 06:15:00;;;;;;;;;;;10.40;99.90;;;;;;5073320;28;19928;-80
2021/12/15 06:17:26;;;;;;;;;;;10.40;99.90;;;;;;5056493;28;20020;-79
2021/12/15 06:19:52;;;;;;;;;;;10.40;99.90;;;;;;5075505;28;20019;-79
2021/12/15 06:22:23;;;;;;;;;;;10.40;99.90;;;;;;5043192;28;20410;-80
2021/12/15 06:24:49;;;;;;;;;;;10.40;99.90;;;;;;5070837;28;19984;-79
2021/12/15 06:27:18;;;;;;;;;;;10.40;99.90;;;;;;5074190;28;20416;-79
2021/12/15 06:29:45;;;;;;;;;;;10.40;99.90;;;;;;5054278;28;19944;-79
2021/12/15 06:32:11;;;;;;;;;;;10.30;99.90;;;;;;5058572;28;20015;-79
2021/12/15 06:34:36;;;;;;;;;;;10.30;99.90;;;;;;5072025;28;19967;-80
2021/12/15 06:37:02;;;;;;;;;;;10.30;99.90;;;;;;5038877;28;20301;-79
2021/12/15 06:39:29;;;;;;;;;;;10.40;99.90;;;;;;5061556;28;20466;-80
2021/12/15 06:41:54;;;;;;;;;;;10.30;99.90;;;;;;5050600;28;20011;-79
2021/12/15 06:44:20;;;;;;;;;;;10.30;99.90;;;;;;5056552;28;19958;-79
2021/12/15 07:00:23;;;;;;;;;;;10.40;99.90;;;;;;5050193;28;19955;-80
2021/12/15 07:02:50;;;;;;;;;;;10.40;99.90;;;;;;5052514;28;19920;-80
2021/12/15 07:05:15;;;;;;;;;;;10.30;99.90;;;;;;5092618;28;20011;-80
2021/12/15 07:07:42;;;;;;;;;;;10.40;99.90;;;;;;5098577;28;19963;-80
2021/12/15 07:10:08;;;;;;;;;;;10.40;99.90;;;;;;5112737;28;19924;-80
2021/12/15 07:12:34;;;;;;;;;;;10.40;99.90;;;;;;5081489;28;20351;-79
2021/12/15 07:15:00;;;;;;;;;;;10.40;99.90;;;;;;5079132;28;19920;-80
2021/12/15 07:17:27;;;;;;;;;;;10.40;99.90;;;;;;5096979;28;19953;-81
2021/12/15 07:22:37;;;;;;;;;;;10.40;99.90;;;;;;5107479;28;20355;-79
2021/12/15 07:25:04;;;;;;;;;;;10.40;99.90;;;;;;5098440;28;19934;-80
2021/12/15 07:27:29;;;;;;;;;;;10.40;99.90;;;;;;5090719;28;20335;-79
2021/12/15 07:29:55;;;;;;;;;;;10.40;99.90;;;;;;5114567;28;19934;-79
2021/12/15 07:32:20;;;;;;;;;;;10.30;99.90;;;;;;5093800;28;19973;-80
2021/12/15 07:34:46;;;;;;;;;;;10.40;99.90;;;;;;5126814;28;20007;-78
2021/12/15 07:37:13;;;;;;;;;;;10.40;99.90;;;;;;5110015;28;20064;-79
2021/12/15 07:39:44;;;;;;;;;;;10.40;99.90;;;;;;5097793;28;20381;-80
2021/12/15 07:42:12;;;;;;;;;;;10.40;99.90;;;;;;5112287;28;20013;-80
2021/12/15 07:44:38;;;;;;;;;;;10.40;99.90;;;;;;5098601;28;19990;-80
2021/12/15 07:47:05;;;;;;;;;;;10.40;99.90;;;;;;5112150;28;19920;-80
2021/12/15 07:49:31;;;;;;;;;;;10.40;99.90;;;;;;5114784;28;19919;-79
2021/12/15 07:52:02;;;;;;;;;;;10.40;99.90;;;;;;5097447;28;19920;-79
2021/12/15 07:54:30;;;;;;;;;;;10.40;99.90;;;;;;5097225;28;19964;-79
2021/12/15 07:56:56;;;;;;;;;;;10.40;99.90;;;;;;5097682;28;20358;-79
2021/12/15 07:59:22;;;;;;;;;;;10.40;99.90;;;;;;5097669;28;19920;-80
2021/12/15 08:01:47;;;;;;;;;;;10.40;99.90;;;;;;5104220;28;20440;-79
2021/12/15 08:04:13;;;;;;;;;;;10.40;99.90;;;;;;5094089;28;19985;-80
2021/12/15 08:06:38;;;;;;;;;;;10.40;99.90;;;;;;5093530;27;19959;-79
2021/12/15 08:09:05;;;;;;;;;;;10.40;99.90;;;;;;5096189;27;19920;-80
2021/12/15 08:11:31;;;;;;;;;;;10.40;99.90;;;;;;5085044;27;20436;-79
2021/12/15 08:13:57;;;;;;;;;;;10.40;99.90;;;;;;5082308;27;19930;-80
2021/12/15 08:16:23;;;;;;;;;;;10.40;99.90;;;;;;5100378;27;19923;-80
2021/12/15 08:18:48;;;;;;;;;;;10.40;99.90;;;;;;5093041;28;19920;-80
2021/12/15 08:21:14;;;;;;;;;;;10.40;99.90;;;;;;5063282;28;20396;-81
2021/12/15 08:23:40;;;;;;;;;;;10.40;99.90;;;;;;5105336;28;19927;-81
2021/12/15 08:26:05;;;;;;;;;;;10.40;99.90;;;;;;5061904;28;20293;-80
2021/12/15 08:28:32;;;;;;;;;;;10.40;99.90;;;;;;5079231;28;19920;-79
2021/12/15 08:30:59;;;;;;;;;;;10.40;99.90;;;;;;5075216;28;19935;-78
2021/12/15 08:33:25;;;;;;;;;;;10.40;99.90;;;;;;5090471;28;19924;-80
2021/12/15 08:35:53;;;;;;;;;;;10.40;99.90;;;;;;5053488;28;19989;-79
2021/12/15 08:38:21;;;;;;;;;;;10.40;99.90;;;;;;5098235;27;20027;-80
2021/12/15 08:40:47;;;;;;;;;;;10.40;99.90;;;;;;5082339;27;19920;-79
2021/12/15 08:43:13;;;;;;;;;;;10.40;99.90;;;;;;5069553;28;19943;-79
2021/12/15 08:45:43;;;;;;;;;;;10.50;99.90;;;;;;5079528;28;19931;-81
2021/12/15 08:48:10;;;;;;;;;;;10.50;99.90;;;;;;5066966;28;20369;-80
2021/12/15 08:50:37;;;;;;;;;;;10.50;99.90;;;;;;5080549;28;19935;-79
2021/12/15 08:53:04;;;;;;;;;;;10.50;99.90;;;;;;5087454;28;19928;-80
2021/12/15 08:55:30;;;;;;;;;;;10.50;99.90;;;;;;5096282;28;19942;-80
2021/12/15 08:57:58;;;;;;;;;;;10.50;99.90;;;;;;5096720;28;20377;-79
2021/12/15 09:00:25;;;;;;;;;;;10.50;99.90;;;;;;5103983;28;19926;-80
2021/12/15 09:02:53;;;;;;;;;;;10.50;99.90;;;;;;5063628;28;19971;-80
2021/12/15 09:05:21;;;;;;;;;;;10.50;99.90;;;;;;5060855;28;19978;-80
2021/12/15 09:07:47;;;;;;;;;;;10.50;99.90;;;;;;5071925;28;19963;-79
2021/12/15 09:10:12;;;;;;;;;;;10.60;99.90;;;;;;5044192;28;20302;-80
2021/12/15 09:12:38;;;;;;;;;;;10.60;99.90;;;;;;5068669;28;19920;-80
2021/12/15 09:15:05;;;;;;;;;;;10.60;99.90;;;;;;5112790;28;19923;-79
2021/12/15 09:17:31;;;;;;;;;;;10.60;99.90;;;;;;5072937;28;19931;-80
2021/12/15 09:19:57;;;;;;;;;;;10.60;99.90;;;;;;5074335;28;19924;-79
2021/12/15 09:22:23;;;;;;;;;;;10.60;99.90;;;;;;5096238;28;20014;-80
2021/12/15 09:24:49;;;;;;;;;;;10.60;99.90;;;;;;5079508;28;19959;-80
2021/12/15 09:27:14;;;;;;;;;;;10.60;99.90;;;;;;5080367;28;19974;-79
2021/12/15 09:29:40;;;;;;;;;;;10.70;99.90;;;;;;5093941;28;19931;-81
2021/12/15 09:32:06;;;;;;;;;;;10.70;99.90;;;;;;5096500;28;20416;-79
2021/12/15 09:34:31;;;;;;;;;;;10.70;99.90;;;;;;5073974;28;20006;-80
2021/12/15 09:36:59;;;;;;;;;;;10.80;99.90;;;;;;5078341;28;20019;-80
2021/12/15 09:39:25;;;;;;;;;;;10.80;99.90;;;;;;5077182;28;19934;-80
2021/12/15 09:41:51;;;;;;;;;;;10.90;99.90;;;;;;5069401;28;20018;-79
2021/12/15 09:44:21;;;;;;;;;;;10.90;99.90;;;;;;5074680;28;19920;-80
2021/12/15 10:01:55;;;;;;;;;;;10.90;99.90;;;;;;5068885;28;20305;-80
2021/12/15 10:03:34;;;;;;;;;;;11.00;99.90;;;;;;5072934;28;19920;-79
2021/12/15 10:11:46;;;;;;;;;;;11.10;99.90;;;;;;5110917;28;19928;-80
2021/12/15 10:19:43;;;;;;;;;;;11.30;99.90;;;;;;5108977;28;20412;-81
2021/12/15 10:22:12;;;;;;;;;;;11.30;99.90;;;;;;5088823;28;19969;-79
2021/12/15 10:24:45;;;;;;;;;;;11.30;99.90;;;;;;5110844;28;19920;-80
2021/12/15 10:27:12;;;;;;;;;;;11.20;99.90;;;;;;5087231;28;19966;-80
2021/12/15 10:29:52;;;;;;;;;;;11.20;99.90;;;;;;5111538;28;19961;-80
2021/12/15 10:32:18;;;;;;;;;;;11.20;99.90;;;;;;5101648;28;19943;-80
2021/12/15 10:34:44;;;;;;;;;;;11.10;99.90;;;;;;5104662;28;19919;-80
2021/12/15 10:37:11;;;;;;;;;;;11.10;99.90;;;;;;5103035;28;19924;-80
2021/12/15 10:39:36;;;;;;;;;;;11.10;99.90;;;;;;5104577;28;20015;-79
2021/12/15 10:42:04;;;;;;;;;;;11.10;99.90;;;;;;5102260;28;19973;-80
2021/12/15 10:44:29;;;;;;;;;;;11.10;99.90;;;;;;5078863;28;19924;-80
2021/12/15 10:46:56;;;;;;;;;;;11.10;99.90;;;;;;5089636;28;19930;-80
2021/12/15 10:49:24;;;;;;;;;;;11.10;99.90;;;;;;5084887;28;19927;-79
2021/12/15 10:51:51;;;;;;;;;;;11.10;99.90;;;;;;5073201;28;20285;-80
2021/12/15 10:54:17;;;;;;;;;;;11.20;99.90;;;;;;5092482;28;19927;-80
2021/12/15 10:56:49;;;;;;;;;;;11.20;99.90;;;;;;5093659;27;19988;-81
2021/12/15 10:59:16;;;;;;;;;;;11.30;99.90;;;;;;5105747;28;19936;-80
2021/12/15 11:01:44;;;;;;;;;;;11.40;99.90;;;;;;5075751;27;19962;-80
2021/12/15 11:04:34;;;;;;;;;;;11.60;99.90;;;;;;5086449;28;20393;-79
2021/12/15 11:07:01;;;;;;;;;;;11.70;99.90;;;;;;5059817;28;20351;-79
2021/12/15 11:09:30;;;;;;;;;;;11.60;99.90;;;;;;5060041;28;20014;-81
2021/12/15 11:11:57;;;;;;;;;;;11.60;99.90;;;;;;5080523;28;19942;-82
2021/12/15 11:14:27;;;;;;;;;;;11.60;99.90;;;;;;5036397;28;19928;-80
2021/12/15 11:17:07;;;;;;;;;;;11.50;99.90;;;;;;5047929;28;19931;-80
2021/12/15 11:19:37;;;;;;;;;;;11.50;99.90;;;;;;5077262;28;19920;-80
2021/12/15 11:22:23;;;;;;;;;;;11.40;99.90;;;;;;5046434;28;19928;-81
2021/12/15 11:24:49;;;;;;;;;;;11.50;99.90;;;;;;5054994;28;19920;-81
2021/12/15 11:27:15;;;;;;;;;;;11.40;99.90;;;;;;5068643;28;20577;-81
2021/12/15 11:29:42;;;;;;;;;;;11.40;99.90;;;;;;5081582;28;19989;-80
2021/12/15 11:32:28;;;;;;;;;;;11.50;99.90;;;;;;5046650;28;19930;-79
2021/12/15 11:34:59;;;;;;;;;;;11.50;99.90;;;;;;5077669;28;20468;-80
2021/12/15 11:37:40;;;;;;;;;;;11.50;99.90;;;;;;5059987;28;19943;-79
2021/12/15 11:40:06;;;;;;;;;;;11.50;99.90;;;;;;5079777;28;20029;-79
2021/12/15 11:42:36;;;;;;;;;;;11.50;99.90;;;;;;5048382;28;19920;-81
2021/12/15 11:45:05;;;;;;;;;;;11.50;99.90;;;;;;5044546;28;19927;-80
2021/12/15 11:47:33;;;;;;;;;;;11.50;99.90;;;;;;5073872;28;19931;-81
2021/12/15 11:50:05;;;;;;;;;;;11.50;99.90;;;;;;5055776;28;20010;-79
2021/12/15 11:52:36;;;;;;;;;;;11.50;99.90;;;;;;5078068;28;19997;-80
2021/12/15 11:55:02;;;;;;;;;;;11.40;99.90;;;;;;5060484;28;19928;-79
2021/12/15 11:57:29;;;;;;;;;;;11.40;99.90;;;;;;5078406;28;19923;-81
2021/12/15 11:59:56;;;;;;;;;;;11.30;99.90;;;;;;5060834;28;19924;-79
2021/12/15 12:02:24;;;;;;;;;;;11.30;99.90;;;;;;5032203;28;19928;-79
2021/12/15 12:04:52;;;;;;;;;;;11.30;99.90;;;;;;5079241;28;20331;-80
2021/12/15 12:07:20;;;;;;;;;;;11.30;99.90;;;;;;5091186;28;19926;-81
2021/12/15 12:09:46;;;;;;;;;;;11.30;99.90;;;;;;5072910;28;19924;-81
2021/12/15 12:12:12;;;;;;;;;;;11.30;99.90;;;;;;5072773;28;19919;-80
2021/12/15 12:14:59;;;;;;;;;;;11.20;99.90;;;;;;5075208;28;19959;-81
2021/12/15 12:17:26;;;;;;;;;;;11.20;99.90;;;;;;5074224;28;19930;-80
2021/12/15 12:19:55;;;;;;;;;;;11.30;99.90;;;;;;5107182;28;19931;-81
2021/12/15 12:22:21;;;;;;;;;;;11.30;99.90;;;;;;5060448;28;19926;-80
2021/12/15 12:24:49;;;;;;;;;;;11.30;99.90;;;;;;5109840;28;20300;-80
2021/12/15 12:27:15;;;;;;;;;;;11.30;99.90;;;;;;5071287;28;19992;-79
2021/12/15 12:29:41;;;;;;;;;;;11.30;99.90;;;;;;5062184;28;19948;-80
2021/12/15 12:32:07;;;;;;;;;;;11.30;99.90;;;;;;5072424;28;19959;-79
2021/12/15 12:34:34;;;;;;;;;;;11.40;99.90;;;;;;5077004;28;19919;-81
2021/12/15 12:37:00;;;;;;;;;;;11.30;99.90;;;;;;5077081;28;19988;-79
2021/12/15 12:39:29;;;;;;;;;;;11.40;99.90;;;;;;5080898;28;19959;-81
2021/12/15 12:41:55;;;;;;;;;;;11.40;99.90;;;;;;5091483;28;19920;-80
2021/12/15 12:44:21;;;;;;;;;;;11.40;99.90;;;;;;5079021;28;19920;-80
2021/12/15 12:46:55;;;;;;;;;;;11.40;99.90;;;;;;5080530;28;19920;-80
2021/12/15 12:49:48;;;;;;;;;;;11.50;99.90;;;;;;5077214;28;19924;-80
2021/12/15 12:58:03;;;;;;;;;;;11.50;99.90;;;;;;5076249;28;19923;-78
2021/12/15 13:00:36;;;;;;;;;;;11.50;99.90;;;;;;5078125;28;20397;-81
2021/12/15 13:03:06;;;;;;;;;;;11.50;99.90;;;;;;5096176;28;20296;-81
2021/12/15 13:05:34;;;;;;;;;;;11.50;99.90;;;;;;5046957;28;19927;-81
2021/12/15 13:08:02;;;;;;;;;;;11.50;99.90;;;;;;5059474;28;19928;-81
2021/12/15 13:10:46;;;;;;;;;;;11.50;99.90;;;;;;5040295;28;19971;-79
2021/12/15 13:13:13;;;;;;;;;;;11.50;99.90;;;;;;5056380;28;20412;-81
2021/12/15 13:15:40;;;;;;;;;;;11.40;99.90;;;;;;5057390;28;19920;-81
2021/12/15 13:18:11;;;;;;;;;;;11.40;99.90;;;;;;5039561;28;19959;-80
2021/12/15 13:20:38;;;;;;;;;;;11.40;99.90;;;;;;5055048;28;20520;-80
2021/12/15 13:23:31;;;;;;;;;;;11.40;99.90;;;;;;5058716;28;19924;-80
2021/12/15 13:28:49;;;;;;;;;;;11.40;99.90;;;;;;5069704;28;19926;-79
2021/12/15 13:31:16;;;;;;;;;;;11.50;99.90;;;;;;5067081;28;20302;-81
2021/12/15 13:33:44;;;;;;;;;;;11.50;99.90;;;;;;5073282;28;19920;-81
2021/12/15 13:36:11;;;;;;;;;;;11.50;99.90;;;;;;5040311;28;20568;-81
2021/12/15 13:38:40;;;;;;;;;;;11.60;99.90;;;;;;5056925;28;20300;-80
2021/12/15 13:41:14;;;;;;;;;;;11.60;99.90;;;;;;5094760;28;19971;-81
2021/12/15 13:43:41;;;;;;;;;;;11.60;99.90;;;;;;5069779;28;19924;-81
2021/12/15 13:46:09;;;;;;;;;;;11.50;99.90;;;;;;5077160;28;19920;-80
2021/12/15 13:48:55;;;;;;;;;;;11.40;99.90;;;;;;5056977;28;19924;-81
2021/12/15 13:51:41;;;;;;;;;;;11.40;99.90;;;;;;5052594;28;21552;-81
2021/12/15 13:54:19;;;;;;;;;;;11.40;99.90;;;;;;5039451;28;19920;-81
2021/12/15 13:56:45;;;;;;;;;;;11.30;99.90;;;;;;5050232;28;20006;-81
2021/12/15 13:59:26;;;;;;;;;;;11.30;99.90;;;;;;5053887;28;19924;-80
2021/12/15 14:02:07;;;;;;;;;;;11.30;99.90;;;;;;5072728;28;19960;-81
2021/12/15 14:04:39;;;;;;;;;;;11.20;99.90;;;;;;5073556;28;19943;-81
2021/12/15 14:07:20;;;;;;;;;;;11.20;99.90;;;;;;5072825;28;19920;-81
2021/12/15 14:09:47;;;;;;;;;;;11.20;99.90;;;;;;5071153;28;20058;-80
2021/12/15 14:12:12;;;;;;;;;;;11.10;99.90;;;;;;5063607;28;19931;-80
2021/12/15 14:14:44;;;;;;;;;;;11.10;99.90;;;;;;5050720;28;20014;-81
2021/12/15 14:17:09;;;;;;;;;;;11.00;99.90;;;;;;5056493;28;19963;-80
2021/12/15 14:19:39;;;;;;;;;;;11.00;99.90;;;;;;5073728;28;19967;-81
2021/12/15 14:22:06;;;;;;;;;;;11.00;99.90;;;;;;5067993;28;19923;-78
2021/12/15 14:24:32;;;;;;;;;;;10.90;99.90;;;;;;5049523;28;19924;-78
2021/12/15 14:26:59;;;;;;;;;;;10.90;99.90;;;;;;5054149;28;19920;-80
2021/12/15 14:29:27;;;;;;;;;;;10.80;99.90;;;;;;5068981;28;19924;-79
2021/12/15 14:31:54;;;;;;;;;;;10.80;99.90;;;;;;5057762;28;20444;-80
2021/12/15 14:34:21;;;;;;;;;;;10.70;99.90;;;;;;5040827;28;19919;-79
2021/12/15 14:36:47;;;;;;;;;;;10.70;99.90;;;;;;5057422;28;19986;-80
2021/12/15 14:39:15;;;;;;;;;;;10.70;99.90;;;;;;5038433;28;19920;-80
2021/12/15 14:41:43;;;;;;;;;;;10.70;99.90;;;;;;5056943;28;19924;-81
2021/12/15 14:44:11;;;;;;;;;;;10.70;99.90;;;;;;5053802;28;20287;-80
2021/12/15 14:46:39;;;;;;;;;;;10.60;99.90;;;;;;5087000;28;19924;-79
2021/12/15 14:49:08;;;;;;;;;;;10.60;99.90;;;;;;5053968;28;19920;-81
2021/12/15 14:51:34;;;;;;;;;;;10.50;99.90;;;;;;5051942;28;19991;-78
2021/12/15 14:54:01;;;;;;;;;;;10.50;99.90;;;;;;5052279;28;19920;-79
2021/12/15 14:56:53;;;;;;;;;;;10.50;99.90;;;;;;5061349;28;19974;-80
2021/12/15 14:59:22;;;;;;;;;;;10.50;99.90;;;;;;5007740;28;20293;-80
2021/12/15 15:01:49;;;;;;;;;;;10.40;99.90;;;;;;5050107;28;19977;-80
2021/12/15 15:04:15;;;;;;;;;;;10.40;99.90;;;;;;5055029;28;19924;-81
2021/12/15 15:06:41;;;;;;;;;;;10.40;99.90;;;;;;5039261;28;19942;-80
2021/12/15 15:09:08;;;;;;;;;;;10.40;99.90;;;;;;5054740;28;19924;-79
2021/12/15 15:11:34;;;;;;;;;;;10.40;99.90;;;;;;5059853;28;19926;-80
2021/12/15 15:14:00;;;;;;;;;;;10.30;99.90;;;;;;5077352;28;19927;-79
2021/12/15 15:16:33;;;;;;;;;;;10.20;99.90;;;;;;5041912;28;19981;-79
2021/12/15 15:19:05;;;;;;;;;;;10.30;99.90;;;;;;5076821;28;20417;-78
2021/12/15 15:21:32;;;;;;;;;;;10.30;99.90;;;;;;5081515;28;19919;-79
2021/12/15 15:23:58;;;;;;;;;;;10.30;99.90;;;;;;5065608;28;19920;-80
2021/12/15 15:26:27;;;;;;;;;;;10.40;99.90;;;;;;5062452;28;19926;-79
2021/12/15 15:28:53;;;;;;;;;;;10.30;99.90;;;;;;5055516;28;20393;-81
2021/12/15 15:31:21;;;;;;;;;;;10.20;99.90;;;;;;5071886;28;20356;-81
2021/12/15 15:33:48;;;;;;;;;;;10.20;99.90;;;;;;5056120;28;19924;-79
2021/12/15 15:36:15;;;;;;;;;;;10.20;99.90;;;;;;5076250;28;19932;-81
2021/12/15 15:38:42;;;;;;;;;;;10.20;99.90;;;;;;5067661;28;20539;-80